sensor_id;sensor_type;location;lat;lon;timestamp;temperature;humidity
27128;DHT22;14660;49.008;8.390;2022-10-17T00:02:24;16.00;99.90
27128;DHT22;14660;49.008;8.390;2022-10-17T00:04:53;16.10;99.90
27128;DHT22;14660;49.008;8.390;2022-10-17T00:07:20;16.10;99.90
27128;DHT22;14660;49.008;8.390;2022-10-17T00:09:47;16.20;99.90
27128;DHT22;14660;49.008;8.390;2022-10-17T00:12:14;16.00;99.90
27128;DHT22;14660;49.008;8.390;2022-10-17T00:14:40;15.90;99.90
27128;DHT22;14660;49.008;8.390;2022-10-17T00:17:07;16.00;99.90
27128;DHT22;14660;49.008;8.390;2022-10-17T00:19:34;16.00;99.90
27128;DHT22;14660;49.008;8.390;2022-10-17T00:22:01;15.90;99.90
27128;DHT22;14660;49.008;8.390;2022-10-17T00:24:29;15.70;99.90
27128;DHT22;14660;49.008;8.390;2022-10-17T00:26:56;15.70;99.90
27128;DHT22;14660;49.008;8.390;2022-10-17T00:29:24;15.70;99.90
27128;DHT22;14660;49.008;8.390;2022-10-17T00:31:56;15.70;99.90
27128;DHT22;14660;49.008;8.390;2022-10-17T00:34:27;15.70;99.90
27128;DHT22;14660;49.008;8.390;2022-10-17T00:36:54;15.70;99.90
27128;DHT22;14660;49.008;8.390;2022-10-17T00:39:28;15.70;99.90
27128;DHT22;14660;49.008;8.390;2022-10-17T00:41:55;15.70;99.90
27128;DHT22;14660;49.008;8.390;2022-10-17T00:47:25;15.70;99.90
27128;DHT22;14660;49.008;8.390;2022-10-17T00:49:52;15.70;99.90
27128;DHT22;14660;49.008;8.390;2022-10-17T00:52:21;15.70;99.90
27128;DHT22;14660;49.008;8.390;2022-10-17T00:55:14;15.60;99.90
27128;DHT22;14660;49.008;8.390;2022-10-17T00:57:43;15.60;99.90
27128;DHT22;14660;49.008;8.390;2022-10-17T01:00:12;15.70;99.90
27128;DHT22;14660;49.008;8.390;2022-10-17T01:02:40;15.70;99.90
27128;DHT22;14660;49.008;8.390;2022-10-17T01:05:08;15.60;99.90
27128;DHT22;14660;49.008;8.390;2022-10-17T01:07:37;15.70;99.90
27128;DHT22;14660;49.008;8.390;2022-10-17T01:10:06;15.70;99.90
27128;DHT22;14660;49.008;8.390;2022-10-17T01:15:58;15.80;99.90
27128;DHT22;14660;49.008;8.390;2022-10-17T01:21:53;15.90;99.90
27128;DHT22;14660;49.008;8.390;2022-10-17T01:46:02;15.70;99.90
27128;DHT22;14660;49.008;8.390;2022-10-17T01:48:35;15.70;99.90
27128;DHT22;14660;49.008;8.390;2022-10-17T01:51:26;15.70;99.90
27128;DHT22;14660;49.008;8.390;2022-10-17T01:56:37;15.70;99.90
27128;DHT22;14660;49.008;8.390;2022-10-17T01:59:27;15.70;99.90
27128;DHT22;14660;49.008;8.390;2022-10-17T02:01:57;15.70;99.90
27128;DHT22;14660;49.008;8.390;2022-10-17T02:04:25;15.60;99.90
27128;DHT22;14660;49.008;8.390;2022-10-17T02:06:53;15.60;99.90
27128;DHT22;14660;49.008;8.390;2022-10-17T02:09:38;15.70;99.90
27128;DHT22;14660;49.008;8.390;2022-10-17T02:12:27;15.60;99.90
27128;DHT22;14660;49.008;8.390;2022-10-17T02:30:33;15.60;99.90
27128;DHT22;14660;49.008;8.390;2022-10-17T02:33:19;15.70;99.90
27128;DHT22;14660;49.008;8.390;2022-10-17T02:35:52;15.70;99.90
27128;DHT22;14660;49.008;8.390;2022-10-17T02:38:21;15.60;99.90
27128;DHT22;14660;49.008;8.390;2022-10-17T02:40:52;15.60;99.90
27128;DHT22;14660;49.008;8.390;2022-10-17T02:43:19;15.60;99.90
27128;DHT22;14660;49.008;8.390;2022-10-17T02:45:48;15.70;99.90
27128;DHT22;14660;49.008;8.390;2022-10-17T02:48:45;15.60;99.90
27128;DHT22;14660;49.008;8.390;2022-10-17T02:55:16;15.70;99.90
27128;DHT22;14660;49.008;8.390;2022-10-17T03:00:28;15.60;99.90
27128;DHT22;14660;49.008;8.390;2022-10-17T03:02:55;15.60;99.90
27128;DHT22;14660;49.008;8.390;2022-10-17T03:05:25;15.50;99.90
27128;DHT22;14660;49.008;8.390;2022-10-17T03:07:52;15.50;99.90
27128;DHT22;14660;49.008;8.390;2022-10-17T03:10:21;15.40;99.90
27128;DHT22;14660;49.008;8.390;2022-10-17T03:12:48;15.50;99.90
27128;DHT22;14660;49.008;8.390;2022-10-17T03:15:14;15.50;99.90
27128;DHT22;14660;49.008;8.390;2022-10-17T03:17:42;15.50;99.90
27128;DHT22;14660;49.008;8.390;2022-10-17T03:20:09;15.40;99.90
27128;DHT22;14660;49.008;8.390;2022-10-17T03:22:38;15.50;99.90
27128;DHT22;14660;49.008;8.390;2022-10-17T03:25:06;15.40;99.90
27128;DHT22;14660;49.008;8.390;2022-10-17T03:27:33;15.20;99.90
27128;DHT22;14660;49.008;8.390;2022-10-17T03:29:59;15.20;99.90
27128;DHT22;14660;49.008;8.390;2022-10-17T03:32:27;15.20;99.90
27128;DHT22;14660;49.008;8.390;2022-10-17T03:34:52;15.30;99.90
27128;DHT22;14660;49.008;8.390;2022-10-17T03:37:19;15.30;99.90
27128;DHT22;14660;49.008;8.390;2022-10-17T03:39:47;15.30;99.90
27128;DHT22;14660;49.008;8.390;2022-10-17T03:42:14;15.30;99.90
27128;DHT22;14660;49.008;8.390;2022-10-17T03:44:40;15.20;99.90
27128;DHT22;14660;49.008;8.390;2022-10-17T03:47:07;15.10;99.90
27128;DHT22;14660;49.008;8.390;2022-10-17T03:49:34;15.10;99.90
27128;DHT22;14660;49.008;8.390;2022-10-17T03:52:01;15.10;99.90
27128;DHT22;14660;49.008;8.390;2022-10-17T03:54:28;14.90;99.90
27128;DHT22;14660;49.008;8.390;2022-10-17T03:56:57;14.90;99.90
27128;DHT22;14660;49.008;8.390;2022-10-17T03:59:23;14.90;99.90
27128;DHT22;14660;49.008;8.390;2022-10-17T04:01:50;14.90;99.90
27128;DHT22;14660;49.008;8.390;2022-10-17T04:04:17;14.90;99.90
27128;DHT22;14660;49.008;8.390;2022-10-17T04:06:43;14.90;99.90
27128;DHT22;14660;49.008;8.390;2022-10-17T04:09:10;14.80;99.90
27128;DHT22;14660;49.008;8.390;2022-10-17T04:11:39;14.60;99.90
27128;DHT22;14660;49.008;8.390;2022-10-17T04:14:05;14.70;99.90
27128;DHT22;14660;49.008;8.390;2022-10-17T04:16:32;14.80;99.90
27128;DHT22;14660;49.008;8.390;2022-10-17T04:18:59;14.80;99.90
27128;DHT22;14660;49.008;8.390;2022-10-17T04:21:27;14.70;99.90
27128;DHT22;14660;49.008;8.390;2022-10-17T04:23:58;14.70;99.90
27128;DHT22;14660;49.008;8.390;2022-10-17T04:26:25;14.80;99.90
27128;DHT22;14660;49.008;8.390;2022-10-17T04:28:54;14.80;99.90
27128;DHT22;14660;49.008;8.390;2022-10-17T04:31:19;14.80;99.90
27128;DHT22;14660;49.008;8.390;2022-10-17T04:33:48;14.90;99.90
27128;DHT22;14660;49.008;8.390;2022-10-17T04:36:18;15.00;99.90
27128;DHT22;14660;49.008;8.390;2022-10-17T04:38:54;14.90;99.90
27128;DHT22;14660;49.008;8.390;2022-10-17T04:41:21;14.80;99.90
27128;DHT22;14660;49.008;8.390;2022-10-17T04:43:48;14.80;99.90
27128;DHT22;14660;49.008;8.390;2022-10-17T04:46:15;14.80;99.90
27128;DHT22;14660;49.008;8.390;2022-10-17T04:48:42;14.80;99.90
27128;DHT22;14660;49.008;8.390;2022-10-17T04:51:14;14.80;99.90
27128;DHT22;14660;49.008;8.390;2022-10-17T04:53:42;14.80;99.90
27128;DHT22;14660;49.008;8.390;2022-10-17T04:56:12;14.70;99.90
27128;DHT22;14660;49.008;8.390;2022-10-17T04:58:42;14.70;99.90
27128;DHT22;14660;49.008;8.390;2022-10-17T05:01:14;14.70;99.90
27128;DHT22;14660;49.008;8.390;2022-10-17T05:03:42;14.80;99.90
27128;DHT22;14660;49.008;8.390;2022-10-17T05:06:18;14.70;99.90
27128;DHT22;14660;49.008;8.390;2022-10-17T05:08:47;14.70;99.90
27128;DHT22;14660;49.008;8.390;2022-10-17T05:11:24;14.70;99.90
27128;DHT22;14660;49.008;8.390;2022-10-17T05:13:57;14.70;99.90
27128;DHT22;14660;49.008;8.390;2022-10-17T05:16:26;14.70;99.90
27128;DHT22;14660;49.008;8.390;2022-10-17T05:19:03;14.70;99.90
27128;DHT22;14660;49.008;8.390;2022-10-17T05:21:33;14.70;99.90
27128;DHT22;14660;49.008;8.390;2022-10-17T05:24:07;14.70;99.90
27128;DHT22;14660;49.008;8.390;2022-10-17T05:26:34;14.80;99.90
27128;DHT22;14660;49.008;8.390;2022-10-17T05:29:05;14.80;99.90
27128;DHT22;14660;49.008;8.390;2022-10-17T05:31:33;14.90;99.90
27128;DHT22;14660;49.008;8.390;2022-10-17T05:34:01;14.80;99.90
27128;DHT22;14660;49.008;8.390;2022-10-17T05:36:28;14.90;99.90
27128;DHT22;14660;49.008;8.390;2022-10-17T05:38:55;14.80;99.90
27128;DHT22;14660;49.008;8.390;2022-10-17T05:41:23;14.80;99.90
27128;DHT22;14660;49.008;8.390;2022-10-17T05:43:50;14.70;99.90
27128;DHT22;14660;49.008;8.390;2022-10-17T05:46:17;14.70;99.90
27128;DHT22;14660;49.008;8.390;2022-10-17T05:48:44;14.60;99.90
27128;DHT22;14660;49.008;8.390;2022-10-17T05:51:11;14.60;99.90
27128;DHT22;14660;49.008;8.390;2022-10-17T05:53:40;14.60;99.90
27128;DHT22;14660;49.008;8.390;2022-10-17T05:56:09;14.70;99.90
27128;DHT22;14660;49.008;8.390;2022-10-17T05:58:46;14.80;99.90
27128;DHT22;14660;49.008;8.390;2022-10-17T06:01:12;14.70;99.90
27128;DHT22;14660;49.008;8.390;2022-10-17T06:03:39;14.60;99.90
27128;DHT22;14660;49.008;8.390;2022-10-17T06:06:08;14.70;99.90
27128;DHT22;14660;49.008;8.390;2022-10-17T06:08:35;14.70;99.90
27128;DHT22;14660;49.008;8.390;2022-10-17T06:11:03;14.60;99.90
27128;DHT22;14660;49.008;8.390;2022-10-17T06:13:30;14.80;99.90
27128;DHT22;14660;49.008;8.390;2022-10-17T06:15:56;14.80;99.90
27128;DHT22;14660;49.008;8.390;2022-10-17T06:18:31;14.80;99.90
27128;DHT22;14660;49.008;8.390;2022-10-17T06:21:09;14.80;99.90
27128;DHT22;14660;49.008;8.390;2022-10-17T06:23:36;14.70;99.90
27128;DHT22;14660;49.008;8.390;2022-10-17T06:26:05;14.80;99.90
27128;DHT22;14660;49.008;8.390;2022-10-17T06:28:32;14.70;99.90
27128;DHT22;14660;49.008;8.390;2022-10-17T06:31:09;14.70;99.90
27128;DHT22;14660;49.008;8.390;2022-10-17T06:33:36;14.90;99.90
27128;DHT22;14660;49.008;8.390;2022-10-17T06:36:09;14.80;99.90
27128;DHT22;14660;49.008;8.390;2022-10-17T06:38:37;14.90;99.90
27128;DHT22;14660;49.008;8.390;2022-10-17T06:41:22;14.90;99.90
27128;DHT22;14660;49.008;8.390;2022-10-17T06:43:51;14.90;99.90
27128;DHT22;14660;49.008;8.390;2022-10-17T06:46:19;14.90;99.90
27128;DHT22;14660;49.008;8.390;2022-10-17T06:48:45;15.10;99.90
27128;DHT22;14660;49.008;8.390;2022-10-17T06:51:13;15.20;99.90
27128;DHT22;14660;49.008;8.390;2022-10-17T06:53:43;15.20;99.90
27128;DHT22;14660;49.008;8.390;2022-10-17T06:56:10;15.30;99.90
27128;DHT22;14660;49.008;8.390;2022-10-17T06:58:38;15.40;99.90
27128;DHT22;14660;49.008;8.390;2022-10-17T07:01:10;15.50;99.90
27128;DHT22;14660;49.008;8.390;2022-10-17T07:03:38;15.60;99.90
27128;DHT22;14660;49.008;8.390;2022-10-17T07:06:06;15.60;99.90
27128;DHT22;14660;49.008;8.390;2022-10-17T07:08:48;15.70;99.90
27128;DHT22;14660;49.008;8.390;2022-10-17T07:11:18;15.80;99.90
27128;DHT22;14660;49.008;8.390;2022-10-17T07:13:46;15.80;99.90
27128;DHT22;14660;49.008;8.390;2022-10-17T07:16:14;15.90;99.90
27128;DHT22;14660;49.008;8.390;2022-10-17T07:18:42;15.90;99.90
27128;DHT22;14660;49.008;8.390;2022-10-17T07:21:12;16.00;99.90
27128;DHT22;14660;49.008;8.390;2022-10-17T07:23:39;16.00;99.90
27128;DHT22;14660;49.008;8.390;2022-10-17T07:26:12;16.00;99.90
27128;DHT22;14660;49.008;8.390;2022-10-17T07:28:51;16.00;99.90
27128;DHT22;14660;49.008;8.390;2022-10-17T07:31:19;16.10;99.90
27128;DHT22;14660;49.008;8.390;2022-10-17T07:33:50;16.10;99.90
27128;DHT22;14660;49.008;8.390;2022-10-17T07:36:17;16.00;99.90
27128;DHT22;14660;49.008;8.390;2022-10-17T07:38:46;16.10;99.90
27128;DHT22;14660;49.008;8.390;2022-10-17T07:41:13;16.20;99.90
27128;DHT22;14660;49.008;8.390;2022-10-17T07:43:40;16.20;99.90
27128;DHT22;14660;49.008;8.390;2022-10-17T07:46:09;16.40;99.90
27128;DHT22;14660;49.008;8.390;2022-10-17T07:48:39;16.40;99.90
27128;DHT22;14660;49.008;8.390;2022-10-17T07:51:07;16.50;99.90
27128;DHT22;14660;49.008;8.390;2022-10-17T07:53:37;16.60;99.90
27128;DHT22;14660;49.008;8.390;2022-10-17T07:56:05;16.60;99.90
27128;DHT22;14660;49.008;8.390;2022-10-17T07:58:33;16.70;99.90
27128;DHT22;14660;49.008;8.390;2022-10-17T08:01:06;16.70;99.90
27128;DHT22;14660;49.008;8.390;2022-10-17T08:03:33;16.80;99.90
27128;DHT22;14660;49.008;8.390;2022-10-17T08:06:03;16.80;99.90
27128;DHT22;14660;49.008;8.390;2022-10-17T08:08:30;16.90;99.90
27128;DHT22;14660;49.008;8.390;2022-10-17T08:11:06;16.90;99.90
27128;DHT22;14660;49.008;8.390;2022-10-17T08:13:33;17.00;99.90
27128;DHT22;14660;49.008;8.390;2022-10-17T08:16:07;17.00;99.90
27128;DHT22;14660;49.008;8.390;2022-10-17T08:18:42;17.20;99.90
27128;DHT22;14660;49.008;8.390;2022-10-17T08:21:13;17.20;99.90
27128;DHT22;14660;49.008;8.390;2022-10-17T08:23:40;17.30;99.90
27128;DHT22;14660;49.008;8.390;2022-10-17T08:26:07;17.40;99.90
27128;DHT22;14660;49.008;8.390;2022-10-17T08:28:40;17.40;99.90
27128;DHT22;14660;49.008;8.390;2022-10-17T08:31:12;17.50;99.90
27128;DHT22;14660;49.008;8.390;2022-10-17T08:33:40;17.60;99.90
27128;DHT22;14660;49.008;8.390;2022-10-17T08:36:07;17.60;99.90
27128;DHT22;14660;49.008;8.390;2022-10-17T08:38:35;17.70;99.90
27128;DHT22;14660;49.008;8.390;2022-10-17T08:41:11;17.80;99.90
27128;DHT22;14660;49.008;8.390;2022-10-17T08:46:55;17.90;99.90
27128;DHT22;14660;49.008;8.390;2022-10-17T08:49:53;17.90;99.90
27128;DHT22;14660;49.008;8.390;2022-10-17T08:55:45;18.10;99.90
27128;DHT22;14660;49.008;8.390;2022-10-17T08:58:32;18.10;99.90
27128;DHT22;14660;49.008;8.390;2022-10-17T09:19:47;18.40;99.90
27128;DHT22;14660;49.008;8.390;2022-10-17T09:22:18;18.40;99.90
27128;DHT22;14660;49.008;8.390;2022-10-17T09:24:56;18.50;99.90
27128;DHT22;14660;49.008;8.390;2022-10-17T09:27:44;18.60;99.90
27128;DHT22;14660;49.008;8.390;2022-10-17T09:30:32;18.70;99.90
27128;DHT22;14660;49.008;8.390;2022-10-17T09:33:08;18.70;99.90
27128;DHT22;14660;49.008;8.390;2022-10-17T09:35:56;18.70;99.90
27128;DHT22;14660;49.008;8.390;2022-10-17T09:38:33;18.70;99.90
27128;DHT22;14660;49.008;8.390;2022-10-17T09:41:02;18.70;99.90
27128;DHT22;14660;49.008;8.390;2022-10-17T09:43:31;18.80;99.90
27128;DHT22;14660;49.008;8.390;2022-10-17T09:46:31;18.80;99.90
27128;DHT22;14660;49.008;8.390;2022-10-17T09:49:11;18.90;99.90
27128;DHT22;14660;49.008;8.390;2022-10-17T09:51:41;18.90;99.90
27128;DHT22;14660;49.008;8.390;2022-10-17T09:54:20;18.90;99.90
27128;DHT22;14660;49.008;8.390;2022-10-17T09:57:19;18.90;99.90
27128;DHT22;14660;49.008;8.390;2022-10-17T10:00:05;18.90;99.90
27128;DHT22;14660;49.008;8.390;2022-10-17T10:02:34;19.00;99.90
27128;DHT22;14660;49.008;8.390;2022-10-17T10:05:27;19.10;99.90
27128;DHT22;14660;49.008;8.390;2022-10-17T10:08:05;19.20;99.90
27128;DHT22;14660;49.008;8.390;2022-10-17T10:10:42;19.20;99.90
27128;DHT22;14660;49.008;8.390;2022-10-17T10:13:28;19.10;99.90
27128;DHT22;14660;49.008;8.390;2022-10-17T10:16:20;19.20;99.90
27128;DHT22;14660;49.008;8.390;2022-10-17T10:18:48;19.20;99.90
27128;DHT22;14660;49.008;8.390;2022-10-17T10:21:23;19.30;99.90
27128;DHT22;14660;49.008;8.390;2022-10-17T10:26:54;19.40;99.90
27128;DHT22;14660;49.008;8.390;2022-10-17T10:29:58;19.50;99.90
27128;DHT22;14660;49.008;8.390;2022-10-17T10:32:44;19.50;99.90
27128;DHT22;14660;49.008;8.390;2022-10-17T10:35:27;19.60;99.90
27128;DHT22;14660;49.008;8.390;2022-10-17T10:37:57;19.60;99.90
27128;DHT22;14660;49.008;8.390;2022-10-17T10:40:34;19.60;99.90
27128;DHT22;14660;49.008;8.390;2022-10-17T10:43:04;19.60;99.90
27128;DHT22;14660;49.008;8.390;2022-10-17T10:45:50;19.70;99.90
27128;DHT22;14660;49.008;8.390;2022-10-17T10:48:36;19.80;99.90
27128;DHT22;14660;49.008;8.390;2022-10-17T10:51:25;19.80;99.90
27128;DHT22;14660;49.008;8.390;2022-10-17T10:54:16;19.90;99.90
27128;DHT22;14660;49.008;8.390;2022-10-17T10:56:49;19.90;99.90
27128;DHT22;14660;49.008;8.390;2022-10-17T11:00:36;19.90;99.90
27128;DHT22;14660;49.008;8.390;2022-10-17T11:02:57;20.10;99.90
27128;DHT22;14660;49.008;8.390;2022-10-17T11:05:37;20.10;99.90
27128;DHT22;14660;49.008;8.390;2022-10-17T11:11:27;20.20;99.90
27128;DHT22;14660;49.008;8.390;2022-10-17T11:14:08;20.30;99.90
27128;DHT22;14660;49.008;8.390;2022-10-17T11:22:49;20.50;99.90
27128;DHT22;14660;49.008;8.390;2022-10-17T11:25:36;20.40;99.90
27128;DHT22;14660;49.008;8.390;2022-10-17T11:28:12;20.50;99.90
27128;DHT22;14660;49.008;8.390;2022-10-17T11:30:51;20.60;99.90
27128;DHT22;14660;49.008;8.390;2022-10-17T11:36:33;20.80;99.90
27128;DHT22;14660;49.008;8.390;2022-10-17T11:42:01;20.70;99.90
27128;DHT22;14660;49.008;8.390;2022-10-17T11:44:52;20.70;99.90
27128;DHT22;14660;49.008;8.390;2022-10-17T11:50:41;20.70;99.90
27128;DHT22;14660;49.008;8.390;2022-10-17T11:53:30;20.60;99.90
27128;DHT22;14660;49.008;8.390;2022-10-17T11:56:09;20.70;99.90
27128;DHT22;14660;49.008;8.390;2022-10-17T11:59:11;20.80;99.90
27128;DHT22;14660;49.008;8.390;2022-10-17T12:01:52;20.80;99.90
27128;DHT22;14660;49.008;8.390;2022-10-17T12:19:24;21.20;99.90
27128;DHT22;14660;49.008;8.390;2022-10-17T12:25:03;21.30;99.90
27128;DHT22;14660;49.008;8.390;2022-10-17T12:27:49;21.30;99.90
27128;DHT22;14660;49.008;8.390;2022-10-17T12:30:24;21.50;99.90
27128;DHT22;14660;49.008;8.390;2022-10-17T12:34:14;21.50;99.90
27128;DHT22;14660;49.008;8.390;2022-10-17T12:42:20;21.50;99.90
27128;DHT22;14660;49.008;8.390;2022-10-17T12:44:56;21.60;99.90
27128;DHT22;14660;49.008;8.390;2022-10-17T12:47:43;21.70;99.90
27128;DHT22;14660;49.008;8.390;2022-10-17T12:53:17;21.70;99.90
27128;DHT22;14660;49.008;8.390;2022-10-17T12:55:47;21.60;99.90
27128;DHT22;14660;49.008;8.390;2022-10-17T12:58:17;21.60;99.90
27128;DHT22;14660;49.008;8.390;2022-10-17T13:01:03;21.70;99.90
27128;DHT22;14660;49.008;8.390;2022-10-17T13:03:32;21.80;99.90
27128;DHT22;14660;49.008;8.390;2022-10-17T13:06:05;21.90;99.90
27128;DHT22;14660;49.008;8.390;2022-10-17T13:08:39;21.90;99.90
27128;DHT22;14660;49.008;8.390;2022-10-17T13:11:09;22.00;99.90
27128;DHT22;14660;49.008;8.390;2022-10-17T13:13:56;22.00;99.90
27128;DHT22;14660;49.008;8.390;2022-10-17T13:16:55;21.90;99.90
27128;DHT22;14660;49.008;8.390;2022-10-17T13:19:30;21.90;99.90
27128;DHT22;14660;49.008;8.390;2022-10-17T13:22:31;22.00;99.90
27128;DHT22;14660;49.008;8.390;2022-10-17T13:24:51;22.10;99.90
27128;DHT22;14660;49.008;8.390;2022-10-17T13:27:32;22.00;99.90
27128;DHT22;14660;49.008;8.390;2022-10-17T13:32:48;22.00;99.90
27128;DHT22;14660;49.008;8.390;2022-10-17T13:35:22;22.10;99.90
27128;DHT22;14660;49.008;8.390;2022-10-17T13:37:50;22.00;99.90
27128;DHT22;14660;49.008;8.390;2022-10-17T13:40:42;22.00;99.90
27128;DHT22;14660;49.008;8.390;2022-10-17T13:43:19;22.00;99.90
27128;DHT22;14660;49.008;8.390;2022-10-17T13:45:55;22.10;99.90
27128;DHT22;14660;49.008;8.390;2022-10-17T13:48:27;22.10;99.90
27128;DHT22;14660;49.008;8.390;2022-10-17T13:50:59;22.10;99.90
27128;DHT22;14660;49.008;8.390;2022-10-17T13:53:39;22.10;99.90
27128;DHT22;14660;49.008;8.390;2022-10-17T13:56:25;22.20;99.90
27128;DHT22;14660;49.008;8.390;2022-10-17T13:58:57;22.30;99.90
27128;DHT22;14660;49.008;8.390;2022-10-17T14:01:27;22.20;99.90
27128;DHT22;14660;49.008;8.390;2022-10-17T14:03:54;22.20;99.90
27128;DHT22;14660;49.008;8.390;2022-10-17T14:06:41;22.30;99.90
27128;DHT22;14660;49.008;8.390;2022-10-17T14:09:24;22.20;99.90
27128;DHT22;14660;49.008;8.390;2022-10-17T14:12:10;22.30;99.90
27128;DHT22;14660;49.008;8.390;2022-10-17T14:14:40;22.10;99.90
27128;DHT22;14660;49.008;8.390;2022-10-17T14:17:28;22.00;99.90
27128;DHT22;14660;49.008;8.390;2022-10-17T14:20:00;22.10;99.90
27128;DHT22;14660;49.008;8.390;2022-10-17T14:22:34;22.10;99.90
27128;DHT22;14660;49.008;8.390;2022-10-17T14:25:25;22.10;99.90
27128;DHT22;14660;49.008;8.390;2022-10-17T14:28:17;22.10;99.90
27128;DHT22;14660;49.008;8.390;2022-10-17T14:30:51;22.10;99.90
27128;DHT22;14660;49.008;8.390;2022-10-17T14:33:30;22.10;99.90
27128;DHT22;14660;49.008;8.390;2022-10-17T14:35:59;22.10;99.90
27128;DHT22;14660;49.008;8.390;2022-10-17T14:38:27;22.10;99.90
27128;DHT22;14660;49.008;8.390;2022-10-17T14:41:14;22.10;99.90
27128;DHT22;14660;49.008;8.390;2022-10-17T14:43:42;22.10;99.90
27128;DHT22;14660;49.008;8.390;2022-10-17T14:46:17;22.00;99.90
27128;DHT22;14660;49.008;8.390;2022-10-17T14:48:43;22.00;99.90
27128;DHT22;14660;49.008;8.390;2022-10-17T14:51:20;22.10;99.90
27128;DHT22;14660;49.008;8.390;2022-10-17T14:54:23;22.00;99.90
27128;DHT22;14660;49.008;8.390;2022-10-17T14:56:52;21.90;99.90
27128;DHT22;14660;49.008;8.390;2022-10-17T14:59:19;21.90;99.90
27128;DHT22;14660;49.008;8.390;2022-10-17T15:01:49;21.90;99.90
27128;DHT22;14660;49.008;8.390;2022-10-17T15:04:20;21.80;99.90
27128;DHT22;14660;49.008;8.390;2022-10-17T15:06:53;22.00;99.90
27128;DHT22;14660;49.008;8.390;2022-10-17T15:09:20;21.90;99.90
27128;DHT22;14660;49.008;8.390;2022-10-17T15:11:58;21.90;99.90
27128;DHT22;14660;49.008;8.390;2022-10-17T15:14:26;21.90;99.90
27128;DHT22;14660;49.008;8.390;2022-10-17T15:16:53;21.80;99.90
27128;DHT22;14660;49.008;8.390;2022-10-17T15:19:20;21.70;99.90
27128;DHT22;14660;49.008;8.390;2022-10-17T15:21:47;21.70;99.90
27128;DHT22;14660;49.008;8.390;2022-10-17T15:24:14;21.60;99.90
27128;DHT22;14660;49.008;8.390;2022-10-17T15:26:42;21.60;99.90
27128;DHT22;14660;49.008;8.390;2022-10-17T15:29:13;21.60;99.90
27128;DHT22;14660;49.008;8.390;2022-10-17T15:31:50;21.60;99.90
27128;DHT22;14660;49.008;8.390;2022-10-17T15:34:17;21.60;99.90
27128;DHT22;14660;49.008;8.390;2022-10-17T15:36:50;21.60;99.90
27128;DHT22;14660;49.008;8.390;2022-10-17T15:39:17;21.50;99.90
27128;DHT22;14660;49.008;8.390;2022-10-17T15:41:45;21.60;99.90
27128;DHT22;14660;49.008;8.390;2022-10-17T15:44:14;21.60;99.90
27128;DHT22;14660;49.008;8.390;2022-10-17T15:46:42;21.50;99.90
27128;DHT22;14660;49.008;8.390;2022-10-17T15:49:15;21.50;99.90
27128;DHT22;14660;49.008;8.390;2022-10-17T15:51:43;21.60;99.90
27128;DHT22;14660;49.008;8.390;2022-10-17T15:54:11;21.60;99.90
27128;DHT22;14660;49.008;8.390;2022-10-17T15:56:42;21.50;99.90
27128;DHT22;14660;49.008;8.390;2022-10-17T15:59:17;21.50;99.90
27128;DHT22;14660;49.008;8.390;2022-10-17T16:01:44;21.50;99.90
27128;DHT22;14660;49.008;8.390;2022-10-17T16:04:14;21.40;99.90
27128;DHT22;14660;49.008;8.390;2022-10-17T16:06:41;21.40;99.90
27128;DHT22;14660;49.008;8.390;2022-10-17T16:09:08;21.40;99.90
27128;DHT22;14660;49.008;8.390;2022-10-17T16:11:43;21.40;99.90
27128;DHT22;14660;49.008;8.390;2022-10-17T16:14:13;21.30;99.90
27128;DHT22;14660;49.008;8.390;2022-10-17T16:16:40;21.20;99.90
27128;DHT22;14660;49.008;8.390;2022-10-17T16:19:07;21.10;99.90
27128;DHT22;14660;49.008;8.390;2022-10-17T16:21:36;21.10;99.90
27128;DHT22;14660;49.008;8.390;2022-10-17T16:24:08;21.00;99.90
27128;DHT22;14660;49.008;8.390;2022-10-17T16:26:37;21.00;99.90
27128;DHT22;14660;49.008;8.390;2022-10-17T16:29:05;21.00;99.90
27128;DHT22;14660;49.008;8.390;2022-10-17T16:31:35;21.00;99.90
27128;DHT22;14660;49.008;8.390;2022-10-17T16:34:03;20.90;99.90
27128;DHT22;14660;49.008;8.390;2022-10-17T16:36:32;20.90;99.90
27128;DHT22;14660;49.008;8.390;2022-10-17T16:38:58;20.90;99.90
27128;DHT22;14660;49.008;8.390;2022-10-17T16:41:33;20.80;99.90
27128;DHT22;14660;49.008;8.390;2022-10-17T16:44:02;20.80;99.90
27128;DHT22;14660;49.008;8.390;2022-10-17T16:46:32;20.80;99.90
27128;DHT22;14660;49.008;8.390;2022-10-17T16:48:59;20.80;99.90
27128;DHT22;14660;49.008;8.390;2022-10-17T16:51:28;20.80;99.90
27128;DHT22;14660;49.008;8.390;2022-10-17T16:53:55;20.70;99.90
27128;DHT22;14660;49.008;8.390;2022-10-17T16:56:27;20.70;99.90
27128;DHT22;14660;49.008;8.390;2022-10-17T16:58:55;20.60;99.90
27128;DHT22;14660;49.008;8.390;2022-10-17T17:01:23;20.60;99.90
27128;DHT22;14660;49.008;8.390;2022-10-17T17:03:53;20.60;99.90
27128;DHT22;14660;49.008;8.390;2022-10-17T17:06:26;20.50;99.90
27128;DHT22;14660;49.008;8.390;2022-10-17T17:08:54;20.50;99.90
27128;DHT22;14660;49.008;8.390;2022-10-17T17:11:23;20.40;99.90
27128;DHT22;14660;49.008;8.390;2022-10-17T17:13:55;20.40;99.90
27128;DHT22;14660;49.008;8.390;2022-10-17T17:16:24;20.30;99.90
27128;DHT22;14660;49.008;8.390;2022-10-17T17:18:57;20.30;99.90
27128;DHT22;14660;49.008;8.390;2022-10-17T17:21:23;20.30;99.90
27128;DHT22;14660;49.008;8.390;2022-10-17T17:23:50;20.20;99.90
27128;DHT22;14660;49.008;8.390;2022-10-17T17:26:21;20.10;99.90
27128;DHT22;14660;49.008;8.390;2022-10-17T17:28:49;20.10;99.90
27128;DHT22;14660;49.008;8.390;2022-10-17T17:31:21;20.20;99.90
27128;DHT22;14660;49.008;8.390;2022-10-17T17:33:49;20.20;99.90
27128;DHT22;14660;49.008;8.390;2022-10-17T17:36:19;20.40;99.90
27128;DHT22;14660;49.008;8.390;2022-10-17T17:38:47;20.30;99.90
27128;DHT22;14660;49.008;8.390;2022-10-17T17:41:15;20.40;99.90
27128;DHT22;14660;49.008;8.390;2022-10-17T17:43:44;20.30;99.90
27128;DHT22;14660;49.008;8.390;2022-10-17T17:46:14;20.30;99.90
27128;DHT22;14660;49.008;8.390;2022-10-17T17:48:42;20.30;99.90
27128;DHT22;14660;49.008;8.390;2022-10-17T17:51:11;20.20;99.90
27128;DHT22;14660;49.008;8.390;2022-10-17T17:53:40;20.20;99.90
27128;DHT22;14660;49.008;8.390;2022-10-17T17:56:11;20.20;99.90
27128;DHT22;14660;49.008;8.390;2022-10-17T17:58:39;20.20;99.90
27128;DHT22;14660;49.008;8.390;2022-10-17T18:01:10;20.10;99.90
27128;DHT22;14660;49.008;8.390;2022-10-17T18:03:38;20.10;99.90
27128;DHT22;14660;49.008;8.390;2022-10-17T18:06:06;20.10;99.90
27128;DHT22;14660;49.008;8.390;2022-10-17T18:08:35;20.10;99.90
27128;DHT22;14660;49.008;8.390;2022-10-17T18:11:08;20.10;99.90
27128;DHT22;14660;49.008;8.390;2022-10-17T18:13:35;20.10;99.90
27128;DHT22;14660;49.008;8.390;2022-10-17T18:16:01;20.10;99.90
27128;DHT22;14660;49.008;8.390;2022-10-17T18:18:30;20.10;99.90